sensor_id;sensor_type;location;lat;lon;timestamp;temperature;humidity
4354;DHT22;11018;51.258;6.806;2023-02-28T00:00:13;1.30;47.60
4354;DHT22;11018;51.258;6.806;2023-02-28T00:02:41;1.40;46.90
4354;DHT22;11018;51.258;6.806;2023-02-28T00:05:08;1.40;46.60
4354;DHT22;11018;51.258;6.806;2023-02-28T00:07:34;1.40;46.90
4354;DHT22;11018;51.258;6.806;2023-02-28T00:10:00;1.30;46.90
4354;DHT22;11018;51.258;6.806;2023-02-28T00:12:26;1.40;47.10
4354;DHT22;11018;51.258;6.806;2023-02-28T00:14:52;1.30;47.10
4354;DHT22;11018;51.258;6.806;2023-02-28T00:17:17;1.30;47.40
4354;DHT22;11018;51.258;6.806;2023-02-28T00:19:47;1.20;48.10
4354;DHT22;11018;51.258;6.806;2023-02-28T00:22:12;1.20;48.00
4354;DHT22;11018;51.258;6.806;2023-02-28T00:24:38;1.20;48.30
4354;DHT22;11018;51.258;6.806;2023-02-28T00:27:04;1.20;50.10
4354;DHT22;11018;51.258;6.806;2023-02-28T00:29:29;1.30;51.50
4354;DHT22;11018;51.258;6.806;2023-02-28T00:31:55;1.40;50.20
4354;DHT22;11018;51.258;6.806;2023-02-28T00:34:20;1.40;48.40
4354;DHT22;11018;51.258;6.806;2023-02-28T00:36:46;1.20;50.80
4354;DHT22;11018;51.258;6.806;2023-02-28T00:39:14;0.90;53.90
4354;DHT22;11018;51.258;6.806;2023-02-28T00:41:39;0.80;56.50
4354;DHT22;11018;51.258;6.806;2023-02-28T00:44:05;0.90;57.60
4354;DHT22;11018;51.258;6.806;2023-02-28T00:46:31;0.90;57.30
4354;DHT22;11018;51.258;6.806;2023-02-28T00:48:56;0.90;58.00
4354;DHT22;11018;51.258;6.806;2023-02-28T00:51:22;0.80;58.60
4354;DHT22;11018;51.258;6.806;2023-02-28T00:53:47;1.10;61.90
4354;DHT22;11018;51.258;6.806;2023-02-28T00:56:13;1.20;56.80
4354;DHT22;11018;51.258;6.806;2023-02-28T00:58:39;1.30;54.70
4354;DHT22;11018;51.258;6.806;2023-02-28T01:01:05;1.20;55.20
4354;DHT22;11018;51.258;6.806;2023-02-28T01:03:30;1.20;54.80
4354;DHT22;11018;51.258;6.806;2023-02-28T01:05:56;1.20;56.30
4354;DHT22;11018;51.258;6.806;2023-02-28T01:08:22;1.30;55.60
4354;DHT22;11018;51.258;6.806;2023-02-28T01:10:47;1.30;56.90
4354;DHT22;11018;51.258;6.806;2023-02-28T01:13:14;1.40;53.20
4354;DHT22;11018;51.258;6.806;2023-02-28T01:15:43;1.50;49.40
4354;DHT22;11018;51.258;6.806;2023-02-28T01:18:09;1.60;48.00
4354;DHT22;11018;51.258;6.806;2023-02-28T01:20:37;1.50;47.80
4354;DHT22;11018;51.258;6.806;2023-02-28T01:23:02;1.50;48.20
4354;DHT22;11018;51.258;6.806;2023-02-28T01:25:28;1.40;48.70
4354;DHT22;11018;51.258;6.806;2023-02-28T01:27:53;1.30;49.20
4354;DHT22;11018;51.258;6.806;2023-02-28T01:30:19;1.10;51.00
4354;DHT22;11018;51.258;6.806;2023-02-28T01:32:45;0.90;53.60
4354;DHT22;11018;51.258;6.806;2023-02-28T01:35:10;1.00;53.40
4354;DHT22;11018;51.258;6.806;2023-02-28T01:37:36;0.90;53.00
4354;DHT22;11018;51.258;6.806;2023-02-28T01:40:02;0.80;53.70
4354;DHT22;11018;51.258;6.806;2023-02-28T01:42:28;0.50;55.90
4354;DHT22;11018;51.258;6.806;2023-02-28T01:45:16;0.50;57.50
4354;DHT22;11018;51.258;6.806;2023-02-28T01:47:43;0.80;55.70
4354;DHT22;11018;51.258;6.806;2023-02-28T01:50:18;0.90;53.90
4354;DHT22;11018;51.258;6.806;2023-02-28T01:52:46;0.90;53.30
4354;DHT22;11018;51.258;6.806;2023-02-28T01:55:12;0.90;53.80
4354;DHT22;11018;51.258;6.806;2023-02-28T01:57:42;0.80;54.40
4354;DHT22;11018;51.258;6.806;2023-02-28T02:00:11;0.70;55.10
4354;DHT22;11018;51.258;6.806;2023-02-28T02:02:39;0.70;55.90
4354;DHT22;11018;51.258;6.806;2023-02-28T02:05:18;0.60;56.10
4354;DHT22;11018;51.258;6.806;2023-02-28T02:07:45;0.60;56.60
4354;DHT22;11018;51.258;6.806;2023-02-28T02:10:18;0.60;57.10
4354;DHT22;11018;51.258;6.806;2023-02-28T02:15:16;0.50;57.80
4354;DHT22;11018;51.258;6.806;2023-02-28T02:17:47;0.50;57.90
4354;DHT22;11018;51.258;6.806;2023-02-28T02:20:27;0.50;57.80
4354;DHT22;11018;51.258;6.806;2023-02-28T02:23:07;0.50;58.10
4354;DHT22;11018;51.258;6.806;2023-02-28T02:25:44;0.50;58.40
4354;DHT22;11018;51.258;6.806;2023-02-28T02:34:01;0.40;58.50
4354;DHT22;11018;51.258;6.806;2023-02-28T02:36:48;0.40;58.30
4354;DHT22;11018;51.258;6.806;2023-02-28T02:39:31;0.40;58.90
4354;DHT22;11018;51.258;6.806;2023-02-28T02:42:01;0.40;59.10
4354;DHT22;11018;51.258;6.806;2023-02-28T02:44:42;0.30;59.40
4354;DHT22;11018;51.258;6.806;2023-02-28T02:47:20;0.30;59.90
4354;DHT22;11018;51.258;6.806;2023-02-28T02:49:52;0.30;60.20
4354;DHT22;11018;51.258;6.806;2023-02-28T02:52:23;0.30;59.70
4354;DHT22;11018;51.258;6.806;2023-02-28T02:54:52;0.30;59.80
4354;DHT22;11018;51.258;6.806;2023-02-28T02:57:30;0.30;59.50
4354;DHT22;11018;51.258;6.806;2023-02-28T02:59:57;0.90;60.10
4354;DHT22;11018;51.258;6.806;2023-02-28T03:02:23;0.30;60.00
4354;DHT22;11018;51.258;6.806;2023-02-28T03:04:59;0.20;60.10
4354;DHT22;11018;51.258;6.806;2023-02-28T03:07:26;0.20;60.70
4354;DHT22;11018;51.258;6.806;2023-02-28T03:09:53;0.20;60.60
4354;DHT22;11018;51.258;6.806;2023-02-28T03:12:19;0.20;60.80
4354;DHT22;11018;51.258;6.806;2023-02-28T03:17:38;0.10;62.00
4354;DHT22;11018;51.258;6.806;2023-02-28T03:20:35;0.10;62.20
4354;DHT22;11018;51.258;6.806;2023-02-28T03:23:44;0.10;62.70
4354;DHT22;11018;51.258;6.806;2023-02-28T03:26:20;0.10;62.60
4354;DHT22;11018;51.258;6.806;2023-02-28T03:36:38;0.10;61.80
4354;DHT22;11018;51.258;6.806;2023-02-28T03:39:17;0.10;61.60
4354;DHT22;11018;51.258;6.806;2023-02-28T03:41:46;0.00;62.00
4354;DHT22;11018;51.258;6.806;2023-02-28T03:44:18;0.00;62.20
4354;DHT22;11018;51.258;6.806;2023-02-28T03:47:00;0.00;62.30
4354;DHT22;11018;51.258;6.806;2023-02-28T03:49:42;0.00;62.30
4354;DHT22;11018;51.258;6.806;2023-02-28T03:52:11;0.00;62.60
4354;DHT22;11018;51.258;6.806;2023-02-28T03:54:42;0.00;63.00
4354;DHT22;11018;51.258;6.806;2023-02-28T03:57:22;-0.10;62.90
4354;DHT22;11018;51.258;6.806;2023-02-28T03:59:56;-0.10;63.00
4354;DHT22;11018;51.258;6.806;2023-02-28T04:02:23;-0.10;62.80
4354;DHT22;11018;51.258;6.806;2023-02-28T04:04:48;-0.10;62.80
4354;DHT22;11018;51.258;6.806;2023-02-28T04:07:15;-0.10;63.20
4354;DHT22;11018;51.258;6.806;2023-02-28T04:09:41;-0.10;63.30
4354;DHT22;11018;51.258;6.806;2023-02-28T04:12:07;-0.20;63.90
4354;DHT22;11018;51.258;6.806;2023-02-28T04:14:33;-0.20;63.80
4354;DHT22;11018;51.258;6.806;2023-02-28T04:16:58;-0.20;63.90
4354;DHT22;11018;51.258;6.806;2023-02-28T04:19:24;-0.20;64.10
4354;DHT22;11018;51.258;6.806;2023-02-28T04:21:51;-0.20;63.80
4354;DHT22;11018;51.258;6.806;2023-02-28T04:24:20;-0.20;64.30
4354;DHT22;11018;51.258;6.806;2023-02-28T04:26:47;-0.20;63.80
4354;DHT22;11018;51.258;6.806;2023-02-28T04:29:19;-0.20;63.10
4354;DHT22;11018;51.258;6.806;2023-02-28T04:31:44;-0.30;64.20
4354;DHT22;11018;51.258;6.806;2023-02-28T04:34:10;-0.20;63.60
4354;DHT22;11018;51.258;6.806;2023-02-28T04:36:35;-0.20;62.80
4354;DHT22;11018;51.258;6.806;2023-02-28T04:39:01;-0.30;63.30
4354;DHT22;11018;51.258;6.806;2023-02-28T04:41:27;-0.30;63.40
4354;DHT22;11018;51.258;6.806;2023-02-28T04:43:52;-0.30;63.40
4354;DHT22;11018;51.258;6.806;2023-02-28T04:46:18;-0.30;62.70
4354;DHT22;11018;51.258;6.806;2023-02-28T04:48:44;-0.30;63.00
4354;DHT22;11018;51.258;6.806;2023-02-28T04:51:13;-0.30;63.70
4354;DHT22;11018;51.258;6.806;2023-02-28T04:53:40;-0.30;64.40
4354;DHT22;11018;51.258;6.806;2023-02-28T04:56:07;-0.30;63.90
4354;DHT22;11018;51.258;6.806;2023-02-28T04:58:33;-0.40;64.30
4354;DHT22;11018;51.258;6.806;2023-02-28T05:01:05;-0.50;66.10
4354;DHT22;11018;51.258;6.806;2023-02-28T05:03:40;-0.40;65.40
4354;DHT22;11018;51.258;6.806;2023-02-28T05:06:07;-0.50;64.90
4354;DHT22;11018;51.258;6.806;2023-02-28T05:08:33;-0.50;66.30
4354;DHT22;11018;51.258;6.806;2023-02-28T05:10:59;-0.50;63.40
4354;DHT22;11018;51.258;6.806;2023-02-28T05:13:26;-0.40;61.10
4354;DHT22;11018;51.258;6.806;2023-02-28T05:15:52;-0.20;58.10
4354;DHT22;11018;51.258;6.806;2023-02-28T05:18:17;-0.20;55.80
4354;DHT22;11018;51.258;6.806;2023-02-28T05:20:43;-0.20;56.00
4354;DHT22;11018;51.258;6.806;2023-02-28T05:23:11;-0.20;55.90
4354;DHT22;11018;51.258;6.806;2023-02-28T05:25:38;-0.20;55.60
4354;DHT22;11018;51.258;6.806;2023-02-28T05:28:04;-0.30;56.20
4354;DHT22;11018;51.258;6.806;2023-02-28T05:30:30;-0.40;57.50
4354;DHT22;11018;51.258;6.806;2023-02-28T05:32:57;-0.50;60.20
4354;DHT22;11018;51.258;6.806;2023-02-28T05:35:22;-0.50;61.70
4354;DHT22;11018;51.258;6.806;2023-02-28T05:37:48;-0.60;61.50
4354;DHT22;11018;51.258;6.806;2023-02-28T05:40:14;-0.80;65.20
4354;DHT22;11018;51.258;6.806;2023-02-28T05:42:40;-0.60;63.10
4354;DHT22;11018;51.258;6.806;2023-02-28T05:45:07;-0.50;60.80
4354;DHT22;11018;51.258;6.806;2023-02-28T05:47:33;-0.50;59.50
4354;DHT22;11018;51.258;6.806;2023-02-28T05:49:58;-0.50;60.10
4354;DHT22;11018;51.258;6.806;2023-02-28T05:52:25;-0.60;59.10
4354;DHT22;11018;51.258;6.806;2023-02-28T05:54:50;-0.50;60.50
4354;DHT22;11018;51.258;6.806;2023-02-28T05:57:16;-0.40;58.80
4354;DHT22;11018;51.258;6.806;2023-02-28T05:59:42;-0.60;59.10
4354;DHT22;11018;51.258;6.806;2023-02-28T06:02:16;-0.60;60.00
4354;DHT22;11018;51.258;6.806;2023-02-28T06:04:42;-0.60;60.70
4354;DHT22;11018;51.258;6.806;2023-02-28T06:07:08;-0.60;61.30
4354;DHT22;11018;51.258;6.806;2023-02-28T06:09:35;-0.60;60.70
4354;DHT22;11018;51.258;6.806;2023-02-28T06:12:03;-0.60;59.00
4354;DHT22;11018;51.258;6.806;2023-02-28T06:14:31;-0.50;59.10
4354;DHT22;11018;51.258;6.806;2023-02-28T06:16:57;-0.60;58.20
4354;DHT22;11018;51.258;6.806;2023-02-28T06:19:23;-0.60;57.90
4354;DHT22;11018;51.258;6.806;2023-02-28T06:21:51;-0.50;57.90
4354;DHT22;11018;51.258;6.806;2023-02-28T06:24:21;-0.60;58.50
4354;DHT22;11018;51.258;6.806;2023-02-28T06:26:46;-0.60;57.70
4354;DHT22;11018;51.258;6.806;2023-02-28T06:29:12;-0.60;56.40
4354;DHT22;11018;51.258;6.806;2023-02-28T06:31:38;-0.50;56.10
4354;DHT22;11018;51.258;6.806;2023-02-28T06:34:04;-0.50;54.30
4354;DHT22;11018;51.258;6.806;2023-02-28T06:36:30;-0.40;52.60
4354;DHT22;11018;51.258;6.806;2023-02-28T06:38:56;-0.30;52.10
4354;DHT22;11018;51.258;6.806;2023-02-28T06:41:25;-0.30;50.10
4354;DHT22;11018;51.258;6.806;2023-02-28T06:43:51;-0.30;50.30
4354;DHT22;11018;51.258;6.806;2023-02-28T06:46:17;-0.30;49.50
4354;DHT22;11018;51.258;6.806;2023-02-28T06:48:44;-0.30;49.70
4354;DHT22;11018;51.258;6.806;2023-02-28T06:51:18;-0.30;49.30
4354;DHT22;11018;51.258;6.806;2023-02-28T06:53:45;-0.20;49.10
4354;DHT22;11018;51.258;6.806;2023-02-28T06:56:13;-0.20;49.00
4354;DHT22;11018;51.258;6.806;2023-02-28T06:58:40;-0.20;49.10
4354;DHT22;11018;51.258;6.806;2023-02-28T07:01:07;-0.10;49.10
4354;DHT22;11018;51.258;6.806;2023-02-28T07:03:34;-0.10;47.70
4354;DHT22;11018;51.258;6.806;2023-02-28T07:06:00;0.00;46.60
4354;DHT22;11018;51.258;6.806;2023-02-28T07:08:26;0.10;46.10
4354;DHT22;11018;51.258;6.806;2023-02-28T07:10:53;0.10;45.40
4354;DHT22;11018;51.258;6.806;2023-02-28T07:13:19;0.10;45.10
4354;DHT22;11018;51.258;6.806;2023-02-28T07:15:59;0.10;44.10
4354;DHT22;11018;51.258;6.806;2023-02-28T07:18:25;0.20;46.70
4354;DHT22;11018;51.258;6.806;2023-02-28T07:20:50;0.40;42.40
4354;DHT22;11018;51.258;6.806;2023-02-28T07:23:16;0.50;41.30
4354;DHT22;11018;51.258;6.806;2023-02-28T07:25:42;0.60;40.40
4354;DHT22;11018;51.258;6.806;2023-02-28T07:28:08;0.70;39.00
4354;DHT22;11018;51.258;6.806;2023-02-28T07:30:34;0.60;39.50
4354;DHT22;11018;51.258;6.806;2023-02-28T07:32:59;0.70;39.00
4354;DHT22;11018;51.258;6.806;2023-02-28T07:35:25;0.80;39.10
4354;DHT22;11018;51.258;6.806;2023-02-28T07:37:50;0.90;38.10
4354;DHT22;11018;51.258;6.806;2023-02-28T07:40:16;1.00;37.00
4354;DHT22;11018;51.258;6.806;2023-02-28T07:42:43;1.00;36.80
4354;DHT22;11018;51.258;6.806;2023-02-28T07:45:09;1.10;35.90
4354;DHT22;11018;51.258;6.806;2023-02-28T07:47:40;1.20;33.30
4354;DHT22;11018;51.258;6.806;2023-02-28T07:50:08;1.20;32.90
4354;DHT22;11018;51.258;6.806;2023-02-28T07:52:34;1.30;33.20
4354;DHT22;11018;51.258;6.806;2023-02-28T07:54:59;1.50;32.00
4354;DHT22;11018;51.258;6.806;2023-02-28T07:57:25;1.60;30.90
4354;DHT22;11018;51.258;6.806;2023-02-28T07:59:50;1.70;29.40
4354;DHT22;11018;51.258;6.806;2023-02-28T08:02:17;1.80;29.60
4354;DHT22;11018;51.258;6.806;2023-02-28T08:04:44;1.80;29.10
4354;DHT22;11018;51.258;6.806;2023-02-28T08:07:09;1.90;28.70
4354;DHT22;11018;51.258;6.806;2023-02-28T08:09:38;2.00;27.80
4354;DHT22;11018;51.258;6.806;2023-02-28T08:12:04;2.10;28.90
4354;DHT22;11018;51.258;6.806;2023-02-28T08:14:30;2.20;27.00
4354;DHT22;11018;51.258;6.806;2023-02-28T08:16:55;2.30;26.80
4354;DHT22;11018;51.258;6.806;2023-02-28T08:19:21;2.40;29.60
4354;DHT22;11018;51.258;6.806;2023-02-28T08:21:46;2.40;27.10
4354;DHT22;11018;51.258;6.806;2023-02-28T08:24:12;2.60;26.40
4354;DHT22;11018;51.258;6.806;2023-02-28T08:26:37;2.60;26.30
4354;DHT22;11018;51.258;6.806;2023-02-28T08:29:03;2.70;25.20
4354;DHT22;11018;51.258;6.806;2023-02-28T08:31:28;2.70;24.70
4354;DHT22;11018;51.258;6.806;2023-02-28T08:33:54;2.80;24.90
4354;DHT22;11018;51.258;6.806;2023-02-28T08:36:23;3.00;23.00
4354;DHT22;11018;51.258;6.806;2023-02-28T08:38:49;3.10;23.60
4354;DHT22;11018;51.258;6.806;2023-02-28T08:41:14;3.10;23.30
4354;DHT22;11018;51.258;6.806;2023-02-28T08:43:43;3.20;22.00
4354;DHT22;11018;51.258;6.806;2023-02-28T08:46:12;3.40;21.50
4354;DHT22;11018;51.258;6.806;2023-02-28T08:48:39;3.40;21.20
4354;DHT22;11018;51.258;6.806;2023-02-28T08:51:07;3.40;20.90
4354;DHT22;11018;51.258;6.806;2023-02-28T08:53:35;3.40;20.50
4354;DHT22;11018;51.258;6.806;2023-02-28T08:56:04;3.60;19.40
4354;DHT22;11018;51.258;6.806;2023-02-28T08:58:29;3.60;18.90
4354;DHT22;11018;51.258;6.806;2023-02-28T09:00:55;3.70;19.60
4354;DHT22;11018;51.258;6.806;2023-02-28T09:03:21;3.80;19.20
4354;DHT22;11018;51.258;6.806;2023-02-28T09:05:58;3.90;18.80
4354;DHT22;11018;51.258;6.806;2023-02-28T09:08:25;4.00;17.20
4354;DHT22;11018;51.258;6.806;2023-02-28T09:10:52;4.00;16.00
4354;DHT22;11018;51.258;6.806;2023-02-28T09:13:18;4.00;16.40
4354;DHT22;11018;51.258;6.806;2023-02-28T09:15:44;4.10;15.80
4354;DHT22;11018;51.258;6.806;2023-02-28T09:18:10;4.00;15.20
4354;DHT22;11018;51.258;6.806;2023-02-28T09:20:40;4.00;17.80
4354;DHT22;11018;51.258;6.806;2023-02-28T09:23:07;3.90;15.50
4354;DHT22;11018;51.258;6.806;2023-02-28T09:25:33;3.90;16.20
4354;DHT22;11018;51.258;6.806;2023-02-28T09:27:59;4.10;15.30
4354;DHT22;11018;51.258;6.806;2023-02-28T09:30:24;4.10;16.30
4354;DHT22;11018;51.258;6.806;2023-02-28T09:32:50;4.10;17.00
4354;DHT22;11018;51.258;6.806;2023-02-28T09:35:20;4.00;15.40
4354;DHT22;11018;51.258;6.806;2023-02-28T09:37:46;4.00;16.20
4354;DHT22;11018;51.258;6.806;2023-02-28T09:40:13;4.10;16.30
4354;DHT22;11018;51.258;6.806;2023-02-28T09:42:40;4.20;15.20
4354;DHT22;11018;51.258;6.806;2023-02-28T09:45:22;4.20;15.50
4354;DHT22;11018;51.258;6.806;2023-02-28T09:47:50;4.20;15.60
4354;DHT22;11018;51.258;6.806;2023-02-28T09:50:38;4.40;16.10
4354;DHT22;11018;51.258;6.806;2023-02-28T09:53:28;4.30;14.90
4354;DHT22;11018;51.258;6.806;2023-02-28T10:06:49;4.70;15.60
4354;DHT22;11018;51.258;6.806;2023-02-28T10:09:22;4.90;15.40
4354;DHT22;11018;51.258;6.806;2023-02-28T10:11:52;5.00;15.00
4354;DHT22;11018;51.258;6.806;2023-02-28T10:14:21;5.20;15.00
4354;DHT22;11018;51.258;6.806;2023-02-28T10:20:00;5.60;13.90
4354;DHT22;11018;51.258;6.806;2023-02-28T10:22:36;5.90;13.50
4354;DHT22;11018;51.258;6.806;2023-02-28T10:25:19;5.90;13.30
4354;DHT22;11018;51.258;6.806;2023-02-28T10:27:45;6.10;12.80
4354;DHT22;11018;51.258;6.806;2023-02-28T10:30:11;6.10;13.50
4354;DHT22;11018;51.258;6.806;2023-02-28T10:32:39;6.10;13.80
4354;DHT22;11018;51.258;6.806;2023-02-28T10:35:20;5.90;13.90
4354;DHT22;11018;51.258;6.806;2023-02-28T10:38:00;5.70;13.80
4354;DHT22;11018;51.258;6.806;2023-02-28T10:40:34;5.50;14.50
4354;DHT22;11018;51.258;6.806;2023-02-28T10:43:06;5.70;14.60
4354;DHT22;11018;51.258;6.806;2023-02-28T10:48:33;5.80;12.40
4354;DHT22;11018;51.258;6.806;2023-02-28T10:50:59;5.70;13.40
4354;DHT22;11018;51.258;6.806;2023-02-28T10:53:52;5.70;13.50
4354;DHT22;11018;51.258;6.806;2023-02-28T10:56:22;5.60;12.10
4354;DHT22;11018;51.258;6.806;2023-02-28T10:58:57;5.50;13.60
4354;DHT22;11018;51.258;6.806;2023-02-28T11:01:44;5.40;13.20
4354;DHT22;11018;51.258;6.806;2023-02-28T11:07:21;5.70;11.60
4354;DHT22;11018;51.258;6.806;2023-02-28T11:09:50;6.10;14.00
4354;DHT22;11018;51.258;6.806;2023-02-28T11:14:54;6.90;12.00
4354;DHT22;11018;51.258;6.806;2023-02-28T11:17:22;6.90;11.10
4354;DHT22;11018;51.258;6.806;2023-02-28T11:19:52;7.00;10.90
4354;DHT22;11018;51.258;6.806;2023-02-28T11:22:21;7.00;11.30
4354;DHT22;11018;51.258;6.806;2023-02-28T11:24:50;6.80;11.50
4354;DHT22;11018;51.258;6.806;2023-02-28T11:29:58;6.70;10.70
4354;DHT22;11018;51.258;6.806;2023-02-28T11:32:28;6.70;11.50
4354;DHT22;11018;51.258;6.806;2023-02-28T11:37:41;7.20;10.20
4354;DHT22;11018;51.258;6.806;2023-02-28T11:40:26;7.20;9.90
4354;DHT22;11018;51.258;6.806;2023-02-28T11:45:42;6.70;10.60
4354;DHT22;11018;51.258;6.806;2023-02-28T11:48:18;6.60;10.60
4354;DHT22;11018;51.258;6.806;2023-02-28T11:51:21;6.60;11.20
4354;DHT22;11018;51.258;6.806;2023-02-28T11:56:44;6.40;10.50
4354;DHT22;11018;51.258;6.806;2023-02-28T12:07:50;6.30;12.20
4354;DHT22;11018;51.258;6.806;2023-02-28T12:10:29;6.40;11.50
4354;DHT22;11018;51.258;6.806;2023-02-28T12:13:05;6.30;10.60
4354;DHT22;11018;51.258;6.806;2023-02-28T12:24:26;5.60;12.80
4354;DHT22;11018;51.258;6.806;2023-02-28T12:26:54;5.70;13.30
4354;DHT22;11018;51.258;6.806;2023-02-28T12:29:29;5.80;12.30
4354;DHT22;11018;51.258;6.806;2023-02-28T12:37:57;6.00;12.40
4354;DHT22;11018;51.258;6.806;2023-02-28T12:40:44;5.90;13.30
4354;DHT22;11018;51.258;6.806;2023-02-28T12:43:12;6.00;13.20
4354;DHT22;11018;51.258;6.806;2023-02-28T12:46:07;6.10;13.40
4354;DHT22;11018;51.258;6.806;2023-02-28T12:48:42;6.10;13.40
4354;DHT22;11018;51.258;6.806;2023-02-28T12:51:09;6.30;13.10
4354;DHT22;11018;51.258;6.806;2023-02-28T12:56:50;6.30;12.60
4354;DHT22;11018;51.258;6.806;2023-02-28T12:59:53;6.40;12.60
4354;DHT22;11018;51.258;6.806;2023-02-28T13:10:06;6.30;10.80
4354;DHT22;11018;51.258;6.806;2023-02-28T13:12:33;6.30;12.80
4354;DHT22;11018;51.258;6.806;2023-02-28T13:15:21;6.40;12.90
4354;DHT22;11018;51.258;6.806;2023-02-28T13:17:51;6.50;13.30
4354;DHT22;11018;51.258;6.806;2023-02-28T13:20:27;6.50;13.60
4354;DHT22;11018;51.258;6.806;2023-02-28T13:22:54;6.60;11.40
4354;DHT22;11018;51.258;6.806;2023-02-28T13:28:11;6.60;11.80
4354;DHT22;11018;51.258;6.806;2023-02-28T13:33:30;6.70;11.00
4354;DHT22;11018;51.258;6.806;2023-02-28T13:38:41;6.60;11.80
4354;DHT22;11018;51.258;6.806;2023-02-28T13:41:48;6.70;13.00
4354;DHT22;11018;51.258;6.806;2023-02-28T13:44:22;6.80;12.70
4354;DHT22;11018;51.258;6.806;2023-02-28T13:49:26;7.00;10.20
4354;DHT22;11018;51.258;6.806;2023-02-28T13:52:02;7.00;12.60
4354;DHT22;11018;51.258;6.806;2023-02-28T13:57:35;7.20;9.90
4354;DHT22;11018;51.258;6.806;2023-02-28T14:06:23;7.60;13.10
4354;DHT22;11018;51.258;6.806;2023-02-28T14:09:19;8.10;10.50
4354;DHT22;11018;51.258;6.806;2023-02-28T14:11:47;8.60;10.40
4354;DHT22;11018;51.258;6.806;2023-02-28T14:17:15;8.50;7.80
4354;DHT22;11018;51.258;6.806;2023-02-28T14:19:45;8.60;9.90
4354;DHT22;11018;51.258;6.806;2023-02-28T14:27:50;9.60;7.10
4354;DHT22;11018;51.258;6.806;2023-02-28T14:33:44;9.50;7.40
4354;DHT22;11018;51.258;6.806;2023-02-28T14:36:36;9.40;7.50
4354;DHT22;11018;51.258;6.806;2023-02-28T14:39:16;9.60;7.10
4354;DHT22;11018;51.258;6.806;2023-02-28T14:41:45;9.70;7.50
4354;DHT22;11018;51.258;6.806;2023-02-28T14:44:19;9.50;6.50
4354;DHT22;11018;51.258;6.806;2023-02-28T14:46:49;9.60;8.20
4354;DHT22;11018;51.258;6.806;2023-02-28T14:49:26;10.10;7.50
4354;DHT22;11018;51.258;6.806;2023-02-28T14:52:22;10.30;6.40
4354;DHT22;11018;51.258;6.806;2023-02-28T14:55:16;10.20;6.90
4354;DHT22;11018;51.258;6.806;2023-02-28T14:57:55;10.20;7.30
4354;DHT22;11018;51.258;6.806;2023-02-28T15:00:24;10.40;5.90
4354;DHT22;11018;51.258;6.806;2023-02-28T15:02:50;10.70;6.50
4354;DHT22;11018;51.258;6.806;2023-02-28T15:10:42;10.90;7.10
4354;DHT22;11018;51.258;6.806;2023-02-28T15:13:13;10.70;6.50
4354;DHT22;11018;51.258;6.806;2023-02-28T15:15:58;10.60;6.70
4354;DHT22;11018;51.258;6.806;2023-02-28T15:18:44;10.80;6.10
4354;DHT22;11018;51.258;6.806;2023-02-28T15:21:15;10.40;6.50
4354;DHT22;11018;51.258;6.806;2023-02-28T15:23:45;10.10;6.40
4354;DHT22;11018;51.258;6.806;2023-02-28T15:26:16;9.90;8.10
4354;DHT22;11018;51.258;6.806;2023-02-28T15:28:43;9.80;7.90
4354;DHT22;11018;51.258;6.806;2023-02-28T15:31:31;9.80;8.30
4354;DHT22;11018;51.258;6.806;2023-02-28T15:34:03;9.60;7.80
4354;DHT22;11018;51.258;6.806;2023-02-28T15:36:31;9.60;8.40
4354;DHT22;11018;51.258;6.806;2023-02-28T15:39:03;9.50;7.60
4354;DHT22;11018;51.258;6.806;2023-02-28T15:41:43;9.60;9.30
4354;DHT22;11018;51.258;6.806;2023-02-28T15:44:28;9.30;7.70
4354;DHT22;11018;51.258;6.806;2023-02-28T15:47:02;9.00;10.30
4354;DHT22;11018;51.258;6.806;2023-02-28T15:49:30;9.00;9.10
4354;DHT22;11018;51.258;6.806;2023-02-28T15:51:59;9.00;9.90
4354;DHT22;11018;51.258;6.806;2023-02-28T15:54:35;9.00;8.90
4354;DHT22;11018;51.258;6.806;2023-02-28T15:57:06;8.90;9.00
4354;DHT22;11018;51.258;6.806;2023-02-28T15:59:36;8.50;9.20
4354;DHT22;11018;51.258;6.806;2023-02-28T16:02:14;7.90;10.00
4354;DHT22;11018;51.258;6.806;2023-02-28T16:05:25;7.40;11.60
4354;DHT22;11018;51.258;6.806;2023-02-28T16:08:17;7.10;13.10
4354;DHT22;11018;51.258;6.806;2023-02-28T16:10:43;6.90;12.90
4354;DHT22;11018;51.258;6.806;2023-02-28T16:13:11;6.50;14.10
4354;DHT22;11018;51.258;6.806;2023-02-28T16:15:42;6.30;15.00
4354;DHT22;11018;51.258;6.806;2023-02-28T16:18:11;6.40;15.30
4354;DHT22;11018;51.258;6.806;2023-02-28T16:20:37;6.20;15.80
4354;DHT22;11018;51.258;6.806;2023-02-28T16:23:04;6.20;15.50
4354;DHT22;11018;51.258;6.806;2023-02-28T16:25:38;6.10;15.80
4354;DHT22;11018;51.258;6.806;2023-02-28T16:28:12;6.00;15.80
4354;DHT22;11018;51.258;6.806;2023-02-28T16:30:40;6.00;15.70
4354;DHT22;11018;51.258;6.806;2023-02-28T16:33:08;5.80;16.20
4354;DHT22;11018;51.258;6.806;2023-02-28T16:35:33;5.80;16.40
4354;DHT22;11018;51.258;6.806;2023-02-28T16:37:59;5.70;16.30
4354;DHT22;11018;51.258;6.806;2023-02-28T16:40:25;5.70;16.90
4354;DHT22;11018;51.258;6.806;2023-02-28T16:42:57;5.70;16.60
4354;DHT22;11018;51.258;6.806;2023-02-28T16:45:28;5.50;17.20
4354;DHT22;11018;51.258;6.806;2023-02-28T16:47:54;5.50;16.90
4354;DHT22;11018;51.258;6.806;2023-02-28T16:50:23;5.40;17.50
4354;DHT22;11018;51.258;6.806;2023-02-28T16:52:49;5.30;19.10
4354;DHT22;11018;51.258;6.806;2023-02-28T16:55:18;5.30;18.20
4354;DHT22;11018;51.258;6.806;2023-02-28T16:57:45;5.30;17.10
4354;DHT22;11018;51.258;6.806;2023-02-28T17:00:13;5.30;17.40
4354;DHT22;11018;51.258;6.806;2023-02-28T17:02:39;5.20;17.50
4354;DHT22;11018;51.258;6.806;2023-02-28T17:05:05;5.20;17.80
4354;DHT22;11018;51.258;6.806;2023-02-28T17:07:32;5.10;17.60
4354;DHT22;11018;51.258;6.806;2023-02-28T17:09:58;5.10;18.60
4354;DHT22;11018;51.258;6.806;2023-02-28T17:12:24;5.00;18.00
4354;DHT22;11018;51.258;6.806;2023-02-28T17:14:50;4.90;18.40
4354;DHT22;11018;51.258;6.806;2023-02-28T17:17:17;4.80;18.40
4354;DHT22;11018;51.258;6.806;2023-02-28T17:19:43;4.80;18.50
4354;DHT22;11018;51.258;6.806;2023-02-28T17:22:09;4.70;19.10
4354;DHT22;11018;51.258;6.806;2023-02-28T17:24:35;4.50;19.60
4354;DHT22;11018;51.258;6.806;2023-02-28T17:27:01;4.40;19.50
4354;DHT22;11018;51.258;6.806;2023-02-28T17:29:26;4.50;19.40
4354;DHT22;11018;51.258;6.806;2023-02-28T17:31:52;4.60;19.30
4354;DHT22;11018;51.258;6.806;2023-02-28T17:34:18;4.50;19.80
4354;DHT22;11018;51.258;6.806;2023-02-28T17:36:46;4.30;20.00
4354;DHT22;11018;51.258;6.806;2023-02-28T17:39:13;4.40;20.00
4354;DHT22;11018;51.258;6.806;2023-02-28T17:41:42;4.40;20.30
4354;DHT22;11018;51.258;6.806;2023-02-28T17:44:08;4.30;20.40
4354;DHT22;11018;51.258;6.806;2023-02-28T17:46:35;4.30;20.50
4354;DHT22;11018;51.258;6.806;2023-02-28T17:49:01;4.30;21.40
4354;DHT22;11018;51.258;6.806;2023-02-28T17:51:26;4.30;22.60
4354;DHT22;11018;51.258;6.806;2023-02-28T17:53:52;4.20;25.40
4354;DHT22;11018;51.258;6.806;2023-02-28T17:56:23;4.30;22.20
4354;DHT22;11018;51.258;6.806;2023-02-28T17:58:50;4.20;23.00
4354;DHT22;11018;51.258;6.806;2023-02-28T18:01:16;4.10;22.70
4354;DHT22;11018;51.258;6.806;2023-02-28T18:03:42;4.10;23.00
4354;DHT22;11018;51.258;6.806;2023-02-28T18:06:21;4.10;23.20
4354;DHT22;11018;51.258;6.806;2023-02-28T18:08:47;4.10;23.10
4354;DHT22;11018;51.258;6.806;2023-02-28T18:11:14;4.00;22.90
4354;DHT22;11018;51.258;6.806;2023-02-28T18:13:50;4.00;23.40
4354;DHT22;11018;51.258;6.806;2023-02-28T18:16:17;3.90;24.80
4354;DHT22;11018;51.258;6.806;2023-02-28T18:18:43;3.80;24.70
4354;DHT22;11018;51.258;6.806;2023-02-28T18:21:12;3.90;23.60